createdAt,value
2019-02-09T00:01:48.587Z,1.53
2019-02-09T00:04:20.461Z,1.80
2019-02-09T00:06:50.580Z,1.57
2019-02-09T00:09:23.573Z,1.50
2019-02-09T00:11:56.403Z,1.43
2019-02-09T00:14:26.992Z,1.47
2019-02-09T00:16:57.001Z,1.47
2019-02-09T00:19:28.183Z,1.40
2019-02-09T00:21:58.543Z,1.50
2019-02-09T00:24:28.668Z,1.60
2019-02-09T00:26:58.729Z,1.80
2019-02-09T00:29:28.984Z,1.60
2019-02-09T00:31:59.008Z,1.50
2019-02-09T00:34:29.563Z,1.73
2019-02-09T00:37:00.176Z,1.20
2019-02-09T00:39:30.178Z,1.70
2019-02-09T00:42:00.351Z,1.87
2019-02-09T00:44:31.668Z,1.60
2019-02-09T00:47:03.717Z,1.60
2019-02-09T00:49:34.425Z,1.90
2019-02-09T00:52:05.528Z,1.40
2019-02-09T00:54:36.765Z,1.70
2019-02-09T00:57:07.039Z,1.40
2019-02-09T00:59:37.036Z,1.73
2019-02-09T01:02:08.162Z,1.40
2019-02-09T01:04:40.700Z,1.40
2019-02-09T01:07:13.271Z,1.47
2019-02-09T01:09:43.384Z,1.80
2019-02-09T01:12:14.961Z,1.47
2019-02-09T01:14:45.138Z,1.87
2019-02-09T01:17:18.381Z,1.60
2019-02-09T01:19:48.535Z,1.20
2019-02-09T01:22:18.995Z,1.50
2019-02-09T01:24:48.914Z,1.47
2019-02-09T01:27:19.011Z,1.47
2019-02-09T01:29:49.482Z,1.30
2019-02-09T01:32:20.930Z,1.20
2019-02-09T01:34:51.099Z,1.13
2019-02-09T01:37:21.952Z,1.43
2019-02-09T01:39:52.371Z,1.30
2019-02-09T01:42:23.894Z,1.00
2019-02-09T01:44:54.778Z,1.23
2019-02-09T01:47:24.669Z,1.10
2019-02-09T01:49:55.033Z,1.27
2019-02-09T01:52:25.179Z,1.37
2019-02-09T01:54:55.462Z,1.10
2019-02-09T01:57:33.475Z,1.30
2019-02-09T02:00:10.370Z,1.50
2019-02-09T02:02:36.637Z,1.30
2019-02-09T02:05:07.599Z,1.70
2019-02-09T02:07:38.708Z,1.57
2019-02-09T02:10:14.057Z,1.50
2019-02-09T02:12:44.100Z,1.37
2019-02-09T02:15:17.095Z,1.20
2019-02-09T02:17:47.356Z,1.63
2019-02-09T02:20:23.558Z,1.30
2019-02-09T02:22:54.280Z,1.30
2019-02-09T02:25:26.402Z,1.40
2019-02-09T02:27:58.242Z,1.77
2019-02-09T02:30:34.592Z,1.60
2019-02-09T02:33:04.968Z,1.27
2019-02-09T02:35:36.330Z,1.30
2019-02-09T02:38:07.062Z,1.47
2019-02-09T02:40:38.298Z,1.63
2019-02-09T02:43:08.410Z,1.20
2019-02-09T02:45:38.782Z,1.60
2019-02-09T02:48:08.850Z,1.33
2019-02-09T02:50:40.625Z,1.30
2019-02-09T02:53:11.290Z,1.40
2019-02-09T02:55:41.786Z,1.30
2019-02-09T02:58:12.548Z,1.33
2019-02-09T03:00:43.033Z,1.40
2019-02-09T03:03:13.192Z,1.20
2019-02-09T03:05:43.457Z,1.30
2019-02-09T03:08:13.424Z,1.53
2019-02-09T03:10:43.366Z,1.33
2019-02-09T03:13:13.560Z,1.20
2019-02-09T03:15:43.562Z,1.10
2019-02-09T03:18:13.680Z,1.10
2019-02-09T03:20:43.838Z,1.40
2019-02-09T03:23:13.920Z,1.60
2019-02-09T03:25:43.786Z,1.40
2019-02-09T03:28:14.102Z,1.30
2019-02-09T03:30:47.463Z,1.60
2019-02-09T03:33:16.988Z,1.40
2019-02-09T03:35:47.264Z,1.50
2019-02-09T03:38:17.152Z,1.23
2019-02-09T03:40:47.172Z,1.70
2019-02-09T03:43:17.328Z,1.50
2019-02-09T03:45:47.325Z,1.57
2019-02-09T03:48:17.449Z,1.27
2019-02-09T03:50:47.697Z,1.40
2019-02-09T03:53:17.833Z,1.30
2019-02-09T03:55:47.977Z,1.63
2019-02-09T03:58:21.146Z,1.40
2019-02-09T04:00:55.376Z,1.67
2019-02-09T04:03:27.419Z,1.40
2019-02-09T04:05:59.436Z,1.30
2019-02-09T04:08:29.555Z,1.40
2019-02-09T04:10:59.794Z,1.50
2019-02-09T04:13:29.761Z,1.67
2019-02-09T04:15:59.877Z,1.30
2019-02-09T04:18:30.124Z,1.13
2019-02-09T04:21:03.053Z,1.53
2019-02-09T04:23:37.043Z,1.07
2019-02-09T04:26:06.910Z,1.60
2019-02-09T04:28:36.830Z,1.40
2019-02-09T04:31:07.196Z,1.67
2019-02-09T04:33:37.126Z,1.50
2019-02-09T04:36:07.002Z,1.43
2019-02-09T04:38:38.656Z,1.40
2019-02-09T04:41:11.817Z,1.30
2019-02-09T04:43:41.682Z,1.43
2019-02-09T04:46:11.665Z,1.40
2019-02-09T04:48:41.665Z,1.37
2019-02-09T04:51:14.960Z,1.60
2019-02-09T04:53:45.034Z,1.20
2019-02-09T04:56:15.316Z,1.33
2019-02-09T04:58:45.666Z,1.60
2019-02-09T05:01:17.065Z,1.60
2019-02-09T05:03:46.908Z,1.47
2019-02-09T05:06:18.067Z,1.50
2019-02-09T05:08:47.966Z,1.50
2019-02-09T05:11:25.231Z,1.27
2019-02-09T05:13:56.209Z,1.43
2019-02-09T05:16:30.564Z,1.50
2019-02-09T05:19:00.668Z,1.50
2019-02-09T05:21:32.108Z,1.40
2019-02-09T05:24:02.047Z,1.30
2019-02-09T05:26:32.119Z,1.40
2019-02-09T05:29:01.991Z,1.20
2019-02-09T05:31:32.416Z,1.37
2019-02-09T05:34:03.598Z,1.40
2019-02-09T05:36:33.884Z,1.70
2019-02-09T05:39:08.288Z,1.10
2019-02-09T05:41:39.654Z,1.17
2019-02-09T05:44:09.655Z,1.30
2019-02-09T05:46:40.395Z,1.30
2019-02-09T05:49:11.891Z,1.30
2019-02-09T05:51:41.899Z,1.53
2019-02-09T05:54:13.191Z,1.00
2019-02-09T05:56:43.067Z,1.60
2019-02-09T05:59:14.259Z,1.20
2019-02-09T06:01:44.421Z,1.20
2019-02-09T06:04:15.585Z,1.23
2019-02-09T06:06:46.347Z,1.23
2019-02-09T06:09:16.484Z,1.10
2019-02-09T06:11:46.811Z,1.23
2019-02-09T06:14:17.198Z,1.00
2019-02-09T06:16:47.502Z,1.10
2019-02-09T06:19:20.320Z,1.40
2019-02-09T06:21:50.705Z,1.03
2019-02-09T06:24:21.094Z,1.20
2019-02-09T06:26:50.893Z,0.90
2019-02-09T06:29:21.002Z,1.40
2019-02-09T06:31:52.025Z,0.97
2019-02-09T06:34:23.445Z,0.97
2019-02-09T06:36:54.125Z,1.00
2019-02-09T06:39:24.046Z,1.10
2019-02-09T06:41:53.997Z,0.80
2019-02-09T06:44:24.827Z,0.93
2019-02-09T06:46:54.717Z,0.90
2019-02-09T06:49:24.583Z,0.90
2019-02-09T06:51:54.756Z,1.00
2019-02-09T06:54:24.978Z,0.87
2019-02-09T06:56:58.004Z,0.90
2019-02-09T06:59:28.010Z,1.07
2019-02-09T07:01:58.027Z,0.80
2019-02-09T07:04:27.911Z,0.90
2019-02-09T07:07:02.228Z,1.10
2019-02-09T07:09:32.190Z,0.90
2019-02-09T07:12:04.785Z,0.90
2019-02-09T07:14:35.116Z,1.00
2019-02-09T07:17:07.766Z,1.17
2019-02-09T07:19:38.421Z,0.90
2019-02-09T07:22:09.995Z,1.00
2019-02-09T07:24:43.000Z,1.23
2019-02-09T07:27:13.264Z,1.00
2019-02-09T07:29:46.897Z,1.03
2019-02-09T07:32:16.735Z,0.80
2019-02-09T07:34:47.425Z,1.13
2019-02-09T07:37:18.798Z,1.07
2019-02-09T07:39:48.801Z,1.10
2019-02-09T07:42:22.193Z,1.00
2019-02-09T07:44:57.215Z,0.90
2019-02-09T07:47:27.230Z,1.10
2019-02-09T07:50:08.615Z,1.10
2019-02-09T07:52:39.886Z,1.00
2019-02-09T07:55:12.684Z,1.23
2019-02-09T07:57:43.066Z,1.20
2019-02-09T08:00:20.068Z,1.10
2019-02-09T08:02:50.389Z,1.10
2019-02-09T08:05:26.116Z,1.20
2019-02-09T08:07:56.162Z,1.23
2019-02-09T08:10:28.028Z,1.00
2019-02-09T08:12:58.397Z,1.03
2019-02-09T08:15:31.142Z,1.47
2019-02-09T08:18:01.273Z,1.33
2019-02-09T08:20:34.610Z,1.50
2019-02-09T08:23:05.060Z,1.20
2019-02-09T08:25:36.409Z,1.30
2019-02-09T08:28:08.171Z,1.03
2019-02-09T08:30:43.897Z,1.20
2019-02-09T08:33:19.146Z,1.07
2019-02-09T08:35:49.462Z,1.20
2019-02-09T08:38:22.441Z,1.07
2019-02-09T08:40:52.392Z,1.00
2019-02-09T08:43:25.749Z,1.40
2019-02-09T08:45:56.880Z,1.23
2019-02-09T08:48:27.045Z,1.00
2019-02-09T08:51:04.707Z,1.23
2019-02-09T08:53:34.764Z,1.37
2019-02-09T08:56:07.916Z,1.27
2019-02-09T08:58:38.055Z,1.10
2019-02-09T09:01:08.142Z,2.43
2019-02-09T09:03:38.966Z,1.50
2019-02-09T09:06:09.158Z,1.60
2019-02-09T09:08:39.205Z,1.10
2019-02-09T09:11:09.968Z,1.37
2019-02-09T09:13:40.460Z,1.10
2019-02-09T09:16:14.691Z,1.00
2019-02-09T09:18:47.337Z,1.00
2019-02-09T09:21:18.452Z,1.20
2019-02-09T09:23:49.759Z,1.20
2019-02-09T09:26:20.691Z,1.27
2019-02-09T09:28:56.887Z,1.13
2019-02-09T09:31:30.902Z,1.10
2019-02-09T09:34:05.475Z,1.30
2019-02-09T09:36:36.209Z,1.00
2019-02-09T09:39:09.731Z,1.30
2019-02-09T09:41:40.038Z,1.00
2019-02-09T09:44:13.694Z,1.13
2019-02-09T09:46:43.802Z,1.40
2019-02-09T09:49:14.942Z,1.40
2019-02-09T09:51:45.333Z,1.60
2019-02-09T09:54:16.910Z,0.73
2019-02-09T09:56:47.196Z,1.53
2019-02-09T09:59:17.574Z,1.30
2019-02-09T10:01:50.449Z,1.20
2019-02-09T10:04:21.091Z,1.20
2019-02-09T10:06:51.212Z,1.20
2019-02-09T10:09:23.616Z,1.10
2019-02-09T10:11:55.816Z,1.00
2019-02-09T10:14:29.430Z,0.90
2019-02-09T10:17:00.674Z,2.50
2019-02-09T10:19:31.317Z,1.27
2019-02-09T10:22:01.978Z,1.10
2019-02-09T10:24:37.281Z,1.30
2019-02-09T10:27:08.805Z,1.17
2019-02-09T10:29:42.401Z,1.00
2019-02-09T10:32:13.355Z,1.03
2019-02-09T10:34:46.234Z,1.40
2019-02-09T10:37:17.923Z,0.80
2019-02-09T10:39:48.399Z,1.20
2019-02-09T10:42:20.106Z,0.90
2019-02-09T10:44:50.648Z,0.93
2019-02-09T10:47:21.437Z,1.47
2019-02-09T10:49:51.871Z,1.20
2019-02-09T10:52:22.188Z,1.40
2019-02-09T10:54:53.280Z,1.30
2019-02-09T10:57:26.018Z,0.90
2019-02-09T10:59:56.910Z,1.10
2019-02-09T11:02:28.111Z,1.10
2019-02-09T11:04:59.948Z,1.47
2019-02-09T11:07:32.385Z,1.33
2019-02-09T11:10:04.022Z,1.50
2019-02-09T11:12:34.391Z,1.10
2019-02-09T11:15:10.700Z,1.30
2019-02-09T11:17:40.984Z,1.23
2019-02-09T11:20:14.913Z,1.80
2019-02-09T11:22:50.877Z,1.50
2019-02-09T11:25:21.630Z,1.23
2019-02-09T11:27:53.067Z,1.33
2019-02-09T11:30:24.922Z,1.67
2019-02-09T11:33:02.065Z,1.27
2019-02-09T11:35:28.411Z,1.30
2019-02-09T11:37:58.535Z,1.27
2019-02-09T11:40:28.762Z,1.20
2019-02-09T11:42:59.119Z,1.10
2019-02-09T11:45:31.599Z,1.33
2019-02-09T11:48:02.250Z,1.70
2019-02-09T11:50:32.676Z,1.33
2019-02-09T11:53:03.603Z,1.57
2019-02-09T11:55:35.217Z,1.30
2019-02-09T11:58:05.316Z,1.10
2019-02-09T12:00:39.642Z,1.30
2019-02-09T12:03:14.990Z,1.50
2019-02-09T12:05:43.102Z,1.40
2019-02-09T12:08:15.211Z,1.23
2019-02-09T12:10:48.715Z,1.50
2019-02-09T12:13:23.767Z,1.47
2019-02-09T12:15:56.798Z,1.30
2019-02-09T12:18:27.622Z,1.30
2019-02-09T12:20:57.667Z,1.37
2019-02-09T12:23:28.158Z,1.60
2019-02-09T12:25:59.804Z,1.77
2019-02-09T12:28:29.911Z,1.50
2019-02-09T12:31:00.187Z,1.40
2019-02-09T12:33:33.330Z,1.40
2019-02-09T12:36:08.043Z,1.53
2019-02-09T12:38:38.343Z,1.87
2019-02-09T12:41:09.547Z,1.50
2019-02-09T12:43:39.636Z,1.50
2019-02-09T12:46:14.569Z,1.50
2019-02-09T12:48:45.377Z,1.43
2019-02-09T12:51:15.300Z,2.37
2019-02-09T12:53:45.435Z,1.80
2019-02-09T12:56:16.904Z,1.10
2019-02-09T12:58:47.039Z,1.50
2019-02-09T13:01:18.953Z,1.40
2019-02-09T13:03:49.457Z,1.30
2019-02-09T13:06:20.101Z,1.30
2019-02-09T13:11:40.690Z,1.40
2019-02-09T13:14:21.676Z,1.60
2019-02-09T13:17:03.531Z,1.40
2019-02-09T13:19:34.311Z,1.70
2019-02-09T13:25:18.701Z,1.57
2019-02-09T13:28:29.002Z,2.10
2019-02-09T13:31:19.959Z,1.70
2019-02-09T13:36:54.213Z,2.07
2019-02-09T13:39:26.139Z,1.43
2019-02-09T13:42:00.279Z,1.73
2019-02-09T13:44:33.397Z,2.10
2019-02-09T13:47:03.528Z,1.40
2019-02-09T13:50:05.721Z,1.90
2019-02-09T13:52:47.213Z,2.37
2019-02-09T13:55:56.256Z,1.73
2019-02-09T13:58:45.213Z,1.67
2019-02-09T14:01:45.935Z,1.93
2019-02-09T14:04:26.791Z,1.50
2019-02-09T14:07:15.931Z,1.67
2019-02-09T14:10:15.714Z,1.80
2019-02-09T14:13:16.604Z,2.13
2019-02-09T14:15:58.599Z,1.70
2019-02-09T14:18:28.962Z,1.87
2019-02-09T14:21:18.107Z,2.27
2019-02-09T14:24:07.536Z,1.60
2019-02-09T14:30:24.548Z,1.80
2019-02-09T14:33:13.516Z,2.50
2019-02-09T14:36:22.680Z,1.77
2019-02-09T14:39:04.617Z,2.23
2019-02-09T14:44:45.494Z,2.00
2019-02-09T14:47:26.272Z,2.30
2019-02-09T14:50:11.261Z,1.80
2019-02-09T14:53:18.824Z,1.90
2019-02-09T14:58:50.414Z,2.50
2019-02-09T15:01:21.148Z,2.47
2019-02-09T15:03:51.512Z,1.87
2019-02-09T15:06:40.434Z,2.27
2019-02-09T15:09:49.882Z,2.90
2019-02-09T15:12:31.049Z,1.93
2019-02-09T15:15:12.521Z,1.93
2019-02-09T15:18:21.593Z,1.83
2019-02-09T15:24:05.712Z,2.10
2019-02-09T15:26:37.390Z,1.60
2019-02-09T15:29:08.920Z,1.57
2019-02-09T15:31:38.750Z,2.23
2019-02-09T15:37:53.076Z,1.57
2019-02-09T15:40:23.923Z,2.57
2019-02-09T15:42:54.172Z,1.97
2019-02-09T15:45:36.021Z,1.83
2019-02-09T15:48:17.902Z,1.90
2019-02-09T15:50:59.593Z,1.70
2019-02-09T15:53:30.172Z,2.23
2019-02-09T15:56:39.308Z,1.80
2019-02-09T16:02:22.288Z,1.90
2019-02-09T16:05:03.853Z,1.90
2019-02-09T16:07:45.412Z,1.80
2019-02-09T16:10:45.862Z,2.00
2019-02-09T16:13:27.017Z,2.00
2019-02-09T16:16:36.072Z,2.43
2019-02-09T16:19:44.447Z,2.13
2019-02-09T16:25:47.403Z,2.00
2019-02-09T16:31:30.527Z,2.00
2019-02-09T16:34:39.521Z,2.53
2019-02-09T16:37:28.741Z,2.30
2019-02-09T16:40:37.866Z,2.13
2019-02-09T16:43:27.153Z,1.70
2019-02-09T16:45:57.579Z,2.00
2019-02-09T16:48:27.663Z,2.20
2019-02-09T16:51:16.900Z,2.53
2019-02-09T16:54:25.890Z,2.60
2019-02-09T17:00:08.089Z,2.27
2019-02-09T17:02:49.561Z,1.80
2019-02-09T17:05:19.992Z,2.60
2019-02-09T17:07:50.329Z,2.20
2019-02-09T17:10:59.378Z,2.87
2019-02-09T17:13:42.260Z,2.27
2019-02-09T17:16:15.968Z,2.47
2019-02-09T17:19:05.748Z,2.37
2019-02-09T17:21:39.236Z,2.20
2019-02-09T17:24:10.592Z,2.37
2019-02-09T17:27:02.656Z,2.20
2019-02-09T17:29:34.256Z,2.30
2019-02-09T17:32:04.866Z,2.10
2019-02-09T17:34:40.819Z,2.43
2019-02-09T17:37:07.536Z,2.00
2019-02-09T17:39:37.449Z,2.30
2019-02-09T17:42:08.956Z,1.93
2019-02-09T17:44:39.320Z,2.03
2019-02-09T17:47:10.724Z,2.10
2019-02-09T17:49:41.247Z,2.10
2019-02-09T17:52:11.526Z,2.10
2019-02-09T17:54:41.836Z,2.50
2019-02-09T17:57:16.538Z,2.33
2019-02-09T17:59:47.221Z,2.20
2019-02-09T18:02:17.872Z,1.80
2019-02-09T18:04:51.534Z,2.20
2019-02-09T18:07:21.875Z,2.27
2019-02-09T18:09:51.720Z,2.27
2019-02-09T18:12:21.800Z,2.17
2019-02-09T18:14:52.410Z,2.07
2019-02-09T18:17:22.245Z,3.13
2019-02-09T18:19:53.722Z,1.73
2019-02-09T18:22:23.812Z,2.00
2019-02-09T18:24:54.344Z,2.10
2019-02-09T18:27:24.922Z,2.40
2019-02-09T18:30:26.294Z,2.17
2019-02-09T18:33:18.777Z,1.90
2019-02-09T18:36:00.312Z,2.03
2019-02-09T18:38:31.401Z,2.43
2019-02-09T18:41:42.432Z,2.33
2019-02-09T18:47:08.141Z,1.80
2019-02-09T18:49:38.409Z,1.93
2019-02-09T18:54:59.121Z,2.40
2019-02-09T18:57:29.825Z,2.50
2019-02-09T19:00:22.145Z,2.30
2019-02-09T19:06:20.719Z,1.90
2019-02-09T19:11:54.670Z,1.80
2019-02-09T19:20:33.093Z,2.03
2019-02-09T19:23:06.694Z,2.70
2019-02-09T19:25:38.338Z,2.63
2019-02-09T19:28:08.960Z,2.30
2019-02-09T19:30:40.530Z,2.53
2019-02-09T19:33:11.388Z,2.47
2019-02-09T19:35:43.426Z,2.30
2019-02-09T19:38:13.706Z,2.10
2019-02-09T19:40:47.888Z,1.97
2019-02-09T19:43:40.623Z,2.00
2019-02-09T19:46:43.575Z,2.30
2019-02-09T19:52:18.534Z,2.40
2019-02-09T19:55:22.860Z,2.07
2019-02-09T19:58:04.876Z,2.13
2019-02-09T20:00:38.688Z,2.40
2019-02-09T20:03:09.433Z,2.00
2019-02-09T20:05:59.024Z,1.93
2019-02-09T20:08:30.145Z,2.00
2019-02-09T20:11:00.985Z,2.50
2019-02-09T20:13:33.443Z,2.10
2019-02-09T20:16:12.418Z,2.07
2019-02-09T20:18:48.240Z,2.00
2019-02-09T20:21:20.460Z,1.87
2019-02-09T20:23:51.755Z,2.30
2019-02-09T20:26:29.838Z,2.30
2019-02-09T20:29:09.505Z,2.53
2019-02-09T20:31:41.666Z,2.10
2019-02-09T20:34:18.742Z,2.10
2019-02-09T20:36:52.433Z,1.83
2019-02-09T20:39:24.223Z,2.00
2019-02-09T20:41:54.351Z,2.10
2019-02-09T20:44:25.065Z,1.97
2019-02-09T20:46:57.018Z,2.23
2019-02-09T20:49:29.274Z,2.10
2019-02-09T20:52:00.578Z,2.23
2019-02-09T20:54:30.561Z,2.10
2019-02-09T20:57:09.463Z,2.00
2019-02-09T20:59:40.600Z,2.50
2019-02-09T21:02:12.152Z,2.13
2019-02-09T21:04:42.573Z,2.47
2019-02-09T21:07:13.599Z,2.13
2019-02-09T21:09:44.005Z,2.27
2019-02-09T21:12:16.970Z,2.40
2019-02-09T21:15:25.884Z,2.40
2019-02-09T21:18:08.519Z,1.90
2019-02-09T21:21:17.543Z,1.87
2019-02-09T21:23:59.031Z,2.17
2019-02-09T21:26:59.467Z,2.30
2019-02-09T21:29:40.321Z,2.03
2019-02-09T21:32:21.310Z,2.47
2019-02-09T21:35:02.351Z,2.23
2019-02-09T21:37:52.953Z,2.00
2019-02-09T21:40:24.672Z,2.47
2019-02-09T21:42:55.284Z,2.03
2019-02-09T21:45:25.671Z,2.10
2019-02-09T21:47:56.074Z,2.20
2019-02-09T21:50:38.088Z,2.07
2019-02-09T21:53:08.898Z,2.33
2019-02-09T21:55:40.547Z,2.30
2019-02-09T21:58:10.841Z,2.50
2019-02-09T22:00:43.343Z,2.60
2019-02-09T22:03:14.579Z,2.00
2019-02-09T22:06:24.681Z,1.90
2019-02-09T22:08:56.768Z,2.00
2019-02-09T22:11:29.833Z,2.30
2019-02-09T22:14:00.827Z,2.20
2019-02-09T22:20:05.468Z,2.17
2019-02-09T22:22:35.896Z,2.20
2019-02-09T22:25:26.847Z,2.00
2019-02-09T22:28:08.376Z,2.47
2019-02-09T22:31:21.838Z,2.40
2019-02-09T22:37:19.530Z,2.47
2019-02-09T22:42:48.237Z,2.27
2019-02-09T22:45:19.965Z,2.73
2019-02-09T22:54:00.146Z,2.07
2019-02-09T22:56:32.738Z,2.20
2019-02-09T22:59:03.506Z,2.37
2019-02-09T23:01:53.370Z,2.27
2019-02-09T23:04:50.354Z,1.70
2019-02-09T23:07:25.241Z,2.63
2019-02-09T23:10:34.341Z,2.67
2019-02-09T23:13:24.595Z,2.10
2019-02-09T23:15:54.638Z,1.60
2019-02-09T23:18:24.655Z,2.20
2019-02-09T23:20:56.012Z,2.00
2019-02-09T23:23:25.946Z,2.03
2019-02-09T23:25:56.678Z,2.50
2019-02-09T23:28:26.827Z,2.63
2019-02-09T23:30:56.824Z,2.60
2019-02-09T23:33:27.471Z,2.80
2019-02-09T23:35:57.535Z,2.00
2019-02-09T23:38:27.900Z,2.17
2019-02-09T23:40:57.750Z,2.07
2019-02-09T23:43:27.651Z,2.40
2019-02-09T23:45:58.987Z,2.10
2019-02-09T23:48:29.447Z,2.90
2019-02-09T23:50:59.423Z,2.50
2019-02-09T23:53:29.621Z,2.30
2019-02-09T23:56:18.867Z,2.33
2019-02-09T23:58:49.352Z,1.93
